Time;durP1;ratioP1;P1;durP2;ratioP2;P2;SDS_P1;SDS_P2;PMS_P1;PMS_P2;Temp;Humidity;BMP_temperature;BMP_pressure;BME280_temperature;BME280_humidity;BME280_pressure;Samples;Min_cycle;Max_cycle;Signal;HPM_P1;HPM_P2
2022/03/01 00:01:50;;;;;;;19.73;11.50;;;;;2.40;102220.00;;;;10472349;28;20200;-82
2022/03/01 00:06:52;;;;;;;25.53;12.23;;;;;2.60;102222.00;;;;10492906;28;20217;-82
2022/03/01 00:11:54;;;;;;;23.07;12.20;;;;;2.60;102216.00;;;;10467913;28;20180;-82
2022/03/01 00:16:56;;;;;;;20.67;12.83;;;;;2.30;102221.00;;;;10468081;28;20248;-82
2022/03/01 00:21:59;;;;;;;19.97;11.63;;;;;2.00;102220.00;;;;10434884;28;20220;-82
2022/03/01 00:27:00;;;;;;;24.10;13.27;;;;;1.90;102223.00;;;;10483618;28;20252;-82
2022/03/01 00:32:03;;;;;;;20.60;12.03;;;;;2.00;102213.00;;;;10434151;28;20198;-82
2022/03/01 00:37:05;;;;;;;19.80;11.70;;;;;2.40;102213.00;;;;10497818;28;20196;-82
2022/03/01 00:42:07;;;;;;;19.37;11.03;;;;;2.60;102208.00;;;;10475053;28;20740;-82
2022/03/01 00:47:09;;;;;;;19.77;11.97;;;;;2.60;102219.00;;;;10450870;28;20573;-83
2022/03/01 00:52:11;;;;;;;21.93;12.83;;;;;2.40;102223.00;;;;10467195;28;20679;-82
2022/03/01 00:57:13;;;;;;;20.97;12.30;;;;;2.10;102236.00;;;;10449354;28;20256;-82
2022/03/01 01:02:15;;;;;;;22.87;13.87;;;;;1.90;102231.00;;;;10458357;28;20186;-82
2022/03/01 01:07:17;;;;;;;18.73;12.73;;;;;1.70;102221.00;;;;10467289;28;20617;-82
2022/03/01 01:12:19;;;;;;;20.97;14.80;;;;;1.50;102226.00;;;;10477747;28;20209;-82
2022/03/01 01:17:21;;;;;;;21.13;13.73;;;;;1.40;102232.00;;;;10482945;28;20251;-81
2022/03/01 01:22:41;;;;;;;20.90;14.33;;;;;1.30;102224.00;;;;10499274;28;20241;-81
2022/03/01 01:27:46;;;;;;;23.77;14.73;;;;;1.20;102228.00;;;;10498675;28;20192;-82
2022/03/01 01:32:50;;;;;;;22.43;13.97;;;;;1.10;102227.00;;;;10498705;28;20212;-82
2022/03/01 01:37:53;;;;;;;27.33;14.47;;;;;1.10;102242.00;;;;10473492;28;20205;-82
2022/03/01 01:42:56;;;;;;;21.27;13.00;;;;;1.20;102241.00;;;;10456543;28;20249;-82
2022/03/01 01:48:01;;;;;;;23.70;13.70;;;;;1.20;102239.00;;;;10457521;28;20209;-82
2022/03/01 01:53:03;;;;;;;19.27;14.00;;;;;1.00;102223.00;;;;10456503;28;20213;-82
2022/03/01 01:58:05;;;;;;;22.93;13.57;;;;;1.00;102228.00;;;;10482839;28;20236;-82
2022/03/01 02:03:07;;;;;;;25.77;15.47;;;;;1.00;102224.00;;;;10440094;28;20196;-81
2022/03/01 02:08:09;;;;;;;24.67;14.40;;;;;1.00;102225.00;;;;10470666;28;20334;-82
2022/03/01 02:13:11;;;;;;;23.27;13.70;;;;;1.10;102219.00;;;;10492233;28;20263;-82
2022/03/01 02:18:13;;;;;;;22.20;13.53;;;;;1.10;102219.00;;;;10480384;28;20551;-82
2022/03/01 02:23:16;;;;;;;23.37;13.90;;;;;1.30;102211.00;;;;10513258;28;20205;-82
2022/03/01 02:28:18;;;;;;;26.43;13.80;;;;;1.40;102209.00;;;;10514158;28;20200;-82
2022/03/01 02:33:20;;;;;;;19.97;12.77;;;;;1.40;102207.00;;;;10513026;28;20278;-82
2022/03/01 02:38:22;;;;;;;23.37;13.70;;;;;1.30;102200.00;;;;10479912;28;20225;-82
2022/03/01 02:43:24;;;;;;;21.73;13.00;;;;;1.20;102201.00;;;;10465321;28;20185;-82
2022/03/01 02:48:26;;;;;;;21.40;13.70;;;;;1.10;102193.00;;;;10471008;28;20184;-82
2022/03/01 02:53:28;;;;;;;24.83;14.53;;;;;1.00;102199.00;;;;10454127;28;20213;-82
2022/03/01 02:58:30;;;;;;;21.97;13.93;;;;;0.90;102193.00;;;;10453495;28;20189;-82
2022/03/01 03:03:32;;;;;;;22.57;14.37;;;;;0.90;102208.00;;;;10455325;28;20220;-82
2022/03/01 03:08:34;;;;;;;23.87;14.40;;;;;0.90;102200.00;;;;10471899;28;20668;-82
2022/03/01 03:13:36;;;;;;;18.87;13.70;;;;;0.90;102197.00;;;;10453209;28;20245;-82
2022/03/01 03:18:38;;;;;;;21.70;14.30;;;;;0.90;102210.00;;;;10453357;28;20205;-82
2022/03/01 03:23:40;;;;;;;20.00;14.10;;;;;0.90;102209.00;;;;10468440;28;20217;-83
2022/03/01 03:28:43;;;;;;;23.10;14.10;;;;;1.00;102207.00;;;;10435859;28;20704;-82
2022/03/01 03:33:45;;;;;;;22.03;14.53;;;;;1.00;102204.00;;;;10468215;28;20223;-82
2022/03/01 03:38:47;;;;;;;23.93;14.67;;;;;1.00;102204.00;;;;10451624;28;20341;-81
2022/03/01 03:43:49;;;;;;;23.37;13.47;;;;;1.10;102196.00;;;;10435333;28;20255;-82
2022/03/01 03:48:52;;;;;;;20.43;13.53;;;;;1.20;102205.00;;;;10451346;28;20259;-82
2022/03/01 03:53:55;;;;;;;22.43;14.23;;;;;1.30;102208.00;;;;10467548;28;20611;-82
2022/03/01 03:58:58;;;;;;;23.43;14.30;;;;;1.30;102209.00;;;;10467627;28;20221;-82
2022/03/01 04:04:00;;;;;;;18.87;13.53;;;;;1.30;102204.00;;;;10457779;28;20603;-82
2022/03/01 04:09:03;;;;;;;23.17;12.33;;;;;1.40;102194.00;;;;10478233;28;20197;-82
2022/03/01 04:14:05;;;;;;;20.13;12.37;;;;;1.70;102195.00;;;;10475482;28;20226;-82
2022/03/01 04:19:08;;;;;;;21.27;13.03;;;;;1.70;102193.00;;;;10492853;28;20188;-82
2022/03/01 04:24:10;;;;;;;24.57;13.10;;;;;1.70;102196.00;;;;10492904;28;20235;-82
2022/03/01 04:29:13;;;;;;;17.03;11.20;;;;;1.70;102195.00;;;;10492061;28;20270;-82
2022/03/01 04:34:15;;;;;;;19.63;12.70;;;;;1.70;102200.00;;;;10496233;28;20307;-82
2022/03/01 04:39:18;;;;;;;19.23;12.93;;;;;1.70;102187.00;;;;10483446;28;20201;-82
2022/03/01 04:44:20;;;;;;;19.57;12.77;;;;;1.60;102192.00;;;;10474857;28;20185;-82
2022/03/01 04:49:23;;;;;;;19.23;12.90;;;;;1.50;102191.00;;;;10443629;28;20663;-82
2022/03/01 04:54:25;;;;;;;16.17;11.23;;;;;1.50;102197.00;;;;10458831;28;20271;-82
2022/03/01 04:59:27;;;;;;;22.17;12.47;;;;;1.50;102197.00;;;;10458652;28;20588;-82
2022/03/01 05:04:29;;;;;;;16.57;11.47;;;;;1.60;102193.00;;;;10474110;28;20205;-82
2022/03/01 05:09:33;;;;;;;22.63;13.37;;;;;1.60;102188.00;;;;10474516;28;20194;-82
2022/03/01 05:14:35;;;;;;;19.63;12.17;;;;;1.60;102191.00;;;;10458429;28;20222;-82
2022/03/01 05:19:37;;;;;;;20.10;11.20;;;;;1.70;102187.00;;;;10473014;28;20192;-82
2022/03/01 05:24:39;;;;;;;19.83;11.77;;;;;1.70;102189.00;;;;10474463;28;20209;-82
2022/03/01 05:29:41;;;;;;;17.50;11.50;;;;;1.70;102196.00;;;;10474964;28;20247;-82
2022/03/01 05:34:43;;;;;;;20.03;12.47;;;;;1.70;102186.00;;;;10499437;28;20205;-82
2022/03/01 05:39:45;;;;;;;19.40;11.40;;;;;1.70;102199.00;;;;10481881;28;20181;-83
2022/03/01 05:44:47;;;;;;;21.00;13.40;;;;;1.70;102186.00;;;;10497044;28;20709;-82
2022/03/01 05:49:49;;;;;;;18.70;12.37;;;;;1.60;102184.00;;;;10498302;28;20189;-82
2022/03/01 05:54:50;;;;;;;16.73;11.20;;;;;1.50;102189.00;;;;10481329;28;20270;-82
2022/03/01 05:59:53;;;;;;;20.27;13.43;;;;;1.40;102191.00;;;;10496283;28;20615;-82
2022/03/01 06:04:55;;;;;;;21.67;11.77;;;;;1.30;102177.00;;;;10485745;28;20185;-82
2022/03/01 06:09:57;;;;;;;21.63;12.67;;;;;1.20;102184.00;;;;10497943;28;20189;-82
2022/03/01 06:14:59;;;;;;;19.23;12.43;;;;;1.10;102179.00;;;;10481219;28;20219;-82
2022/03/01 06:20:01;;;;;;;21.10;12.10;;;;;1.20;102189.00;;;;10498934;28;20626;-81
2022/03/01 06:25:04;;;;;;;17.87;11.53;;;;;1.50;102183.00;;;;10497446;28;20215;-82
2022/03/01 06:30:08;;;;;;;18.03;11.97;;;;;1.60;102179.00;;;;10497071;28;20189;-81
2022/03/01 06:35:10;;;;;;;19.43;11.70;;;;;1.70;102187.00;;;;10496142;28;20216;-82
2022/03/01 06:40:18;;;;;;;19.27;11.53;;;;;1.90;102195.00;;;;10480621;28;20292;-82
2022/03/01 06:45:20;;;;;;;18.00;10.47;;;;;2.20;102197.00;;;;10479544;28;20260;-81
2022/03/01 06:50:23;;;;;;;18.03;10.83;;;;;2.40;102202.00;;;;10481224;28;20626;-82
2022/03/01 06:55:27;;;;;;;21.23;12.63;;;;;2.50;102194.00;;;;10494578;28;20239;-82
2022/03/01 07:00:29;;;;;;;16.77;10.77;;;;;2.70;102202.00;;;;10480381;28;20556;-82
2022/03/01 07:05:32;;;;;;;17.83;10.60;;;;;2.90;102193.00;;;;10511017;28;20287;-82
2022/03/01 07:10:35;;;;;;;18.77;10.90;;;;;3.20;102238.00;;;;10511995;28;20247;-82
2022/03/01 07:15:38;;;;;;;15.77;10.33;;;;;3.30;102221.00;;;;10474015;28;20214;-81
2022/03/01 07:20:40;;;;;;;13.70;8.80;;;;;3.50;102204.00;;;;10469116;28;20194;-81
2022/03/01 07:25:42;;;;;;;19.00;11.87;;;;;3.60;102207.00;;;;10455425;28;20218;-82
2022/03/01 07:30:44;;;;;;;16.90;10.03;;;;;3.70;102196.00;;;;10452754;28;20195;-81
2022/03/01 07:35:46;;;;;;;15.87;10.23;;;;;3.80;102217.00;;;;10456220;28;20213;-81
2022/03/01 07:40:48;;;;;;;18.33;10.30;;;;;3.90;102209.00;;;;10476637;28;20552;-81
2022/03/01 07:45:50;;;;;;;18.30;9.77;;;;;4.20;102212.00;;;;10493199;28;20189;-82
2022/03/01 07:51:11;;;;;;;16.30;9.23;;;;;4.50;102229.00;;;;10428604;28;20602;-78
2022/03/01 07:56:14;;;;;;;18.60;9.63;;;;;4.80;102230.00;;;;10394161;28;20194;-79
2022/03/01 08:01:16;;;;;;;17.17;10.53;;;;;5.10;102233.00;;;;10380436;28;20202;-79
2022/03/01 08:06:18;;;;;;;21.60;10.77;;;;;5.30;102241.00;;;;10453861;28;20190;-79
2022/03/01 08:11:21;;;;;;;35.70;12.50;;;;;5.60;102241.00;;;;10449592;28;20252;-80
2022/03/01 08:16:23;;;;;;;18.20;10.13;;;;;6.00;102260.00;;;;10430131;28;20251;-81
2022/03/01 08:21:25;;;;;;;16.23;9.83;;;;;6.30;102272.00;;;;10405424;28;20190;-81
2022/03/01 08:26:30;;;;;;;17.73;10.93;;;;;6.80;102265.00;;;;10383753;28;20215;-81
2022/03/01 08:31:32;;;;;;;17.40;11.47;;;;;7.20;102248.00;;;;10360755;28;20195;-81
2022/03/01 08:36:34;;;;;;;19.57;11.53;;;;;7.70;102243.00;;;;10394244;28;20693;-81
2022/03/01 08:41:36;;;;;;;16.13;10.23;;;;;7.80;102252.00;;;;10392005;28;20227;-81
2022/03/01 08:46:38;;;;;;;13.80;9.57;;;;;7.80;102248.00;;;;10392055;28;20222;-80
2022/03/01 08:51:40;;;;;;;15.97;10.37;;;;;7.80;102256.00;;;;10361120;28;20233;-81
2022/03/01 08:56:43;;;;;;;17.37;10.40;;;;;7.90;102257.00;;;;10376175;28;20614;-82
2022/03/01 09:01:45;;;;;;;14.70;9.70;;;;;8.20;102257.00;;;;10342348;28;20203;-81
2022/03/01 09:06:47;;;;;;;16.90;10.87;;;;;8.70;102261.00;;;;10371232;28;20237;-81
2022/03/01 09:11:53;;;;;;;16.10;10.40;;;;;9.30;102271.00;;;;10342891;28;20238;-81
2022/03/01 09:16:55;;;;;;;13.83;9.60;;;;;9.60;102262.00;;;;10364528;28;20198;-81
2022/03/01 09:21:58;;;;;;;16.80;10.60;;;;;10.20;102270.00;;;;10349685;28;20223;-81
2022/03/01 09:27:02;;;;;;;16.67;10.23;;;;;10.10;102263.00;;;;10345828;28;20200;-80
2022/03/01 09:32:05;;;;;;;15.83;9.90;;;;;10.00;102271.00;;;;10372092;28;20581;-81
2022/03/01 09:37:06;;;;;;;15.60;10.40;;;;;9.80;102283.00;;;;10351378;28;20183;-81
2022/03/01 09:42:09;;;;;;;26.70;10.53;;;;;9.90;102278.00;;;;10314743;28;20194;-81
2022/03/01 09:47:11;;;;;;;14.90;10.53;;;;;10.00;102269.00;;;;10344848;28;20211;-81
2022/03/01 09:52:14;;;;;;;19.03;11.10;;;;;10.20;102275.00;;;;10375542;28;20207;-82
2022/03/01 09:57:18;;;;;;;17.93;10.87;;;;;10.30;102275.00;;;;10380871;28;20194;-81
2022/03/01 10:02:20;;;;;;;20.63;11.23;;;;;10.40;102286.00;;;;10348350;28;20204;-81
2022/03/01 10:07:27;;;;;;;19.50;10.70;;;;;10.50;102275.00;;;;10348897;28;20207;-81
2022/03/01 10:12:29;;;;;;;17.97;10.97;;;;;10.70;102272.00;;;;10346087;28;20826;-81
2022/03/01 10:17:45;;;;;;;19.23;11.83;;;;;10.90;102269.00;;;;10356005;28;20214;-81
2022/03/01 10:22:52;;;;;;;28.03;13.70;;;;;11.00;102272.00;;;;10329560;28;20705;-81
2022/03/01 10:27:55;;;;;;;23.93;14.23;;;;;11.00;102278.00;;;;10357902;28;20243;-81
2022/03/01 10:33:05;;;;;;;23.17;13.50;;;;;11.10;102283.00;;;;10321714;28;20192;-81
2022/03/01 10:38:09;;;;;;;23.23;12.37;;;;;11.20;102292.00;;;;10398085;28;20191;-81
2022/03/01 10:43:13;;;;;;;18.83;12.10;;;;;11.30;102292.00;;;;10347564;28;20188;-80
2022/03/01 10:48:37;;;;;;;20.23;13.17;;;;;11.60;102299.00;;;;10328985;28;20230;-81
2022/03/01 10:53:42;;;;;;;21.43;12.63;;;;;11.90;102293.00;;;;10339833;28;20318;-81
2022/03/01 10:58:44;;;;;;;18.83;12.03;;;;;11.90;102298.00;;;;10358289;28;20187;-79
2022/03/01 11:03:49;;;;;;;24.00;12.40;;;;;11.70;102301.00;;;;10365368;28;20666;-79
2022/03/01 11:08:52;;;;;;;21.07;13.03;;;;;11.30;102307.00;;;;10332927;28;20699;-79
2022/03/01 11:13:55;;;;;;;18.37;11.93;;;;;10.90;102299.00;;;;10335366;28;20211;-79
2022/03/01 11:19:14;;;;;;;19.23;13.07;;;;;10.70;102293.00;;;;10348538;28;20254;-79
2022/03/01 11:24:20;;;;;;;20.83;13.17;;;;;10.70;102277.00;;;;10367108;28;20218;-79
2022/03/01 11:29:23;;;;;;;21.23;12.13;;;;;10.90;102262.00;;;;10374856;28;20214;-79
2022/03/01 11:34:26;;;;;;;18.77;12.40;;;;;11.00;102253.00;;;;10357715;28;20199;-80
2022/03/01 11:39:35;;;;;;;27.20;13.57;;;;;11.30;102246.00;;;;10366691;28;20187;-80
2022/03/01 11:44:40;;;;;;;28.43;13.30;;;;;11.40;102243.00;;;;10382457;28;20206;-80
2022/03/01 11:49:43;;;;;;;20.00;13.10;;;;;11.20;102240.00;;;;10366501;28;20222;-80
2022/03/01 11:54:47;;;;;;;21.70;12.87;;;;;11.30;102230.00;;;;10363100;28;20621;-79
2022/03/01 11:59:50;;;;;;;21.20;13.93;;;;;11.50;102228.00;;;;10325695;28;20188;-79
2022/03/01 12:04:55;;;;;;;20.00;13.70;;;;;11.50;102228.00;;;;10356588;28;20199;-79
2022/03/01 12:10:03;;;;;;;26.60;14.10;;;;;11.50;102225.00;;;;10315809;28;20208;-79
2022/03/01 12:15:07;;;;;;;21.10;14.43;;;;;11.50;102216.00;;;;10379136;28;20207;-80
2022/03/01 12:20:13;;;;;;;23.53;14.40;;;;;11.80;102226.00;;;;10352502;28;20195;-79
2022/03/01 12:25:16;;;;;;;25.30;14.33;;;;;12.20;102233.00;;;;10334749;28;20310;-79
2022/03/01 12:30:23;;;;;;;25.40;14.43;;;;;12.30;102231.00;;;;10340150;28;20227;-79
2022/03/01 12:35:27;;;;;;;24.10;13.93;;;;;12.10;102240.00;;;;10360305;28;20210;-79
2022/03/01 12:40:30;;;;;;;20.53;13.63;;;;;12.20;102233.00;;;;10387629;28;20187;-79
2022/03/01 12:45:38;;;;;;;22.23;14.27;;;;;12.30;102214.00;;;;10388426;28;20270;-79
2022/03/01 12:50:50;;;;;;;19.70;13.67;;;;;12.60;102202.00;;;;10360389;28;20220;-78
2022/03/01 12:55:53;;;;;;;23.77;14.57;;;;;12.70;102196.00;;;;10354716;28;20551;-79
2022/03/01 13:01:07;;;;;;;23.20;13.90;;;;;12.70;102207.00;;;;10365658;28;20621;-79
2022/03/01 13:06:20;;;;;;;20.20;14.57;;;;;12.60;102220.00;;;;10385874;28;20202;-77
2022/03/01 13:11:24;;;;;;;18.93;12.73;;;;;12.30;102219.00;;;;10401053;28;20206;-80
2022/03/01 13:16:35;;;;;;;21.13;13.90;;;;;12.00;102202.00;;;;10384990;28;20277;-79
2022/03/01 13:21:57;;;;;;;21.03;12.70;;;;;11.90;102191.00;;;;10343157;28;20211;-79
2022/03/01 13:27:04;;;;;;;18.00;12.93;;;;;12.00;102202.00;;;;10333911;28;20202;-79
2022/03/01 13:32:07;;;;;;;21.27;14.63;;;;;11.80;102192.00;;;;10320017;28;20243;-80
2022/03/01 13:37:12;;;;;;;23.90;13.90;;;;;11.50;102185.00;;;;10344481;28;20192;-79
2022/03/01 13:42:16;;;;;;;21.70;13.87;;;;;11.30;102189.00;;;;10348246;28;20199;-79
2022/03/01 13:47:23;;;;;;;22.43;13.03;;;;;11.40;102181.00;;;;10363146;28;20211;-79
2022/03/01 13:52:28;;;;;;;22.93;13.37;;;;;11.40;102177.00;;;;10344847;28;20971;-79
2022/03/01 13:57:34;;;;;;;21.50;13.00;;;;;11.40;102174.00;;;;10350596;28;20193;-79
2022/03/01 14:02:37;;;;;;;19.53;13.20;;;;;11.40;102165.00;;;;10369644;28;20195;-79
2022/03/01 14:07:39;;;;;;;19.63;12.97;;;;;11.60;102158.00;;;;10353668;28;20204;-80
2022/03/01 14:12:43;;;;;;;20.23;13.13;;;;;12.00;102152.00;;;;10360048;28;20264;-80
2022/03/01 14:17:56;;;;;;;18.20;12.30;;;;;12.30;102152.00;;;;10382136;28;20197;-77
2022/03/01 14:22:59;;;;;;;16.93;11.53;;;;;12.40;102142.00;;;;10361638;28;20240;-77
2022/03/01 14:28:03;;;;;;;19.53;11.93;;;;;12.50;102141.00;;;;10340074;28;20303;-78
2022/03/01 14:33:06;;;;;;;21.33;12.63;;;;;12.70;102136.00;;;;10345931;28;20211;-78
2022/03/01 14:38:08;;;;;;;18.57;12.70;;;;;12.90;102137.00;;;;10371746;28;20250;-77
2022/03/01 14:43:10;;;;;;;22.03;12.70;;;;;13.50;102117.00;;;;10342392;28;20729;-78
2022/03/01 14:48:12;;;;;;;19.50;12.83;;;;;13.50;102128.00;;;;10354307;28;20218;-79
2022/03/01 14:53:14;;;;;;;19.80;13.40;;;;;13.80;102122.00;;;;10360564;28;20751;-79
2022/03/01 14:58:18;;;;;;;20.03;13.37;;;;;13.80;102107.00;;;;10329840;28;20189;-79
2022/03/01 15:03:20;;;;;;;19.13;12.77;;;;;13.50;102114.00;;;;10375683;28;20271;-79
2022/03/01 15:08:23;;;;;;;20.97;12.93;;;;;13.20;102102.00;;;;10360519;28;20208;-79
2022/03/01 15:13:25;;;;;;;22.03;13.63;;;;;12.90;102100.00;;;;10358339;28;20199;-79
2022/03/01 15:18:28;;;;;;;21.77;13.27;;;;;12.80;102091.00;;;;10342221;28;20562;-79
2022/03/01 15:23:32;;;;;;;21.03;13.53;;;;;12.70;102082.00;;;;10301211;28;20220;-79
2022/03/01 15:28:35;;;;;;;19.43;12.90;;;;;12.40;102092.00;;;;10315863;28;20283;-79
2022/03/01 15:33:37;;;;;;;21.97;12.53;;;;;12.10;102094.00;;;;10319422;28;20607;-79
2022/03/01 15:38:40;;;;;;;18.83;12.63;;;;;12.20;102097.00;;;;10349383;28;20198;-79
2022/03/01 15:43:42;;;;;;;19.97;12.27;;;;;12.40;102086.00;;;;10382540;28;20206;-80
2022/03/01 15:48:44;;;;;;;17.80;13.07;;;;;12.90;102073.00;;;;10374972;28;20258;-79
2022/03/01 15:53:46;;;;;;;22.33;12.93;;;;;13.50;102083.00;;;;10333289;28;20200;-79
2022/03/01 15:58:48;;;;;;;19.70;12.50;;;;;13.80;102078.00;;;;10302563;28;20763;-79
2022/03/01 16:03:50;;;;;;;19.00;12.13;;;;;13.50;102065.00;;;;10367665;28;20203;-79
2022/03/01 16:08:52;;;;;;;22.63;12.40;;;;;13.00;102072.00;;;;10383717;28;20265;-80
2022/03/01 16:13:54;;;;;;;23.80;12.53;;;;;12.40;102072.00;;;;10391026;28;20609;-80
2022/03/01 16:18:56;;;;;;;24.07;12.93;;;;;12.10;102078.00;;;;10391189;28;20237;-80
2022/03/01 16:23:58;;;;;;;26.60;13.47;;;;;11.70;102074.00;;;;10391408;28;20218;-80
2022/03/01 16:29:03;;;;;;;23.53;13.70;;;;;11.30;102071.00;;;;10353057;28;20216;-80
2022/03/01 16:34:05;;;;;;;24.67;13.50;;;;;11.00;102066.00;;;;10364380;28;20230;-80
2022/03/01 16:39:08;;;;;;;23.63;13.30;;;;;10.70;102061.00;;;;10365852;28;20203;-80
2022/03/01 16:44:10;;;;;;;21.00;12.23;;;;;10.50;102063.00;;;;10349479;28;20279;-80
2022/03/01 16:49:12;;;;;;;23.67;13.17;;;;;10.20;102062.00;;;;10363687;28;20223;-80
2022/03/01 16:54:14;;;;;;;20.57;13.07;;;;;10.00;102061.00;;;;10350335;28;20199;-80
2022/03/01 16:59:16;;;;;;;23.47;12.37;;;;;9.80;102072.00;;;;10348217;28;20188;-80
2022/03/01 17:04:18;;;;;;;20.93;12.73;;;;;9.70;102080.00;;;;10381975;28;20195;-80
2022/03/01 17:09:20;;;;;;;20.57;12.93;;;;;9.50;102078.00;;;;10364146;28;20246;-79
2022/03/01 17:14:22;;;;;;;21.50;12.27;;;;;9.30;102071.00;;;;10347952;28;20647;-79
2022/03/01 17:19:24;;;;;;;18.77;12.20;;;;;9.20;102079.00;;;;10347348;28;20230;-79
2022/03/01 17:24:26;;;;;;;21.93;13.10;;;;;9.10;102080.00;;;;10363715;28;20219;-79
2022/03/01 17:29:29;;;;;;;18.10;12.10;;;;;9.00;102080.00;;;;10371602;28;20225;-79
2022/03/01 17:34:31;;;;;;;18.70;12.47;;;;;8.90;102074.00;;;;10387883;28;20297;-79
2022/03/01 17:39:37;;;;;;;19.23;12.00;;;;;8.80;102072.00;;;;10372052;28;20219;-79
2022/03/01 17:44:40;;;;;;;20.93;11.93;;;;;8.70;102084.00;;;;10388925;28;20590;-80
2022/03/01 17:49:42;;;;;;;19.50;12.30;;;;;8.70;102084.00;;;;10347164;28;20310;-80
2022/03/01 17:54:44;;;;;;;23.20;11.73;;;;;8.50;102080.00;;;;10363296;28;20249;-79
2022/03/01 17:59:46;;;;;;;20.60;12.20;;;;;8.40;102077.00;;;;10357516;28;20197;-80
2022/03/01 18:04:47;;;;;;;22.00;13.37;;;;;8.30;102081.00;;;;10362278;28;20249;-80
2022/03/01 18:09:51;;;;;;;21.70;13.23;;;;;8.10;102085.00;;;;10387455;28;20257;-80
2022/03/01 18:14:53;;;;;;;18.70;12.77;;;;;8.10;102081.00;;;;10404571;28;20229;-80
2022/03/01 18:19:55;;;;;;;26.33;16.17;;;;;8.00;102099.00;;;;10366501;28;20192;-80
2022/03/01 18:24:57;;;;;;;28.37;15.77;;;;;7.90;102095.00;;;;10338159;28;20773;-80
2022/03/01 18:29:59;;;;;;;31.97;17.53;;;;;7.90;102090.00;;;;10321261;28;20222;-80
2022/03/01 18:35:02;;;;;;;28.03;18.23;;;;;7.80;102092.00;;;;10326052;28;20218;-80
2022/03/01 18:40:04;;;;;;;31.60;18.73;;;;;7.70;102081.00;;;;10337519;28;20196;-80
2022/03/01 18:45:07;;;;;;;30.53;19.37;;;;;7.60;102080.00;;;;10321237;28;20283;-80
2022/03/01 18:50:09;;;;;;;31.23;18.10;;;;;7.60;102084.00;;;;10359273;28;20262;-80
2022/03/01 18:55:12;;;;;;;28.60;16.53;;;;;7.50;102089.00;;;;10346002;28;20214;-80
2022/03/01 19:00:16;;;;;;;30.00;17.40;;;;;7.50;102083.00;;;;10345280;28;20697;-80
2022/03/01 19:05:20;;;;;;;27.77;16.50;;;;;7.50;102097.00;;;;10344863;28;20203;-80
2022/03/01 19:10:22;;;;;;;23.63;14.90;;;;;7.60;102094.00;;;;10328480;28;20725;-80
2022/03/01 19:15:24;;;;;;;27.33;15.07;;;;;7.70;102096.00;;;;10345344;28;20202;-80
2022/03/01 19:20:31;;;;;;;28.80;16.63;;;;;7.80;102091.00;;;;10328204;28;20192;-80
2022/03/01 19:25:54;;;;;;;25.23;16.20;;;;;7.80;102099.00;;;;10351479;28;20234;-80
2022/03/01 19:30:56;;;;;;;30.30;16.73;;;;;7.70;102107.00;;;;10344322;28;20220;-80
2022/03/01 19:35:58;;;;;;;26.33;16.83;;;;;7.60;102097.00;;;;10343070;28;20575;-79
2022/03/01 19:41:00;;;;;;;29.00;17.83;;;;;7.50;102092.00;;;;10303303;28;20265;-80
2022/03/01 19:46:02;;;;;;;28.03;17.50;;;;;7.50;102105.00;;;;10302967;28;20196;-79
2022/03/01 19:51:04;;;;;;;28.53;17.50;;;;;7.30;102103.00;;;;10342402;28;20286;-80
2022/03/01 19:56:06;;;;;;;30.37;17.63;;;;;7.20;102115.00;;;;10344375;28;20207;-80
2022/03/01 20:01:08;;;;;;;32.47;17.97;;;;;7.10;102117.00;;;;10342662;28;20203;-80
2022/03/01 20:06:10;;;;;;;29.37;18.23;;;;;6.90;102112.00;;;;10343039;28;20200;-80
2022/03/01 20:11:12;;;;;;;30.87;19.83;;;;;6.80;102096.00;;;;10327217;28;20219;-84
2022/03/01 20:16:15;;;;;;;29.87;18.93;;;;;6.60;102100.00;;;;10342367;28;20192;-80
2022/03/01 20:21:17;;;;;;;29.13;18.50;;;;;6.50;102104.00;;;;10327364;28;20200;-80
2022/03/01 20:26:21;;;;;;;31.27;19.60;;;;;6.40;102103.00;;;;10343520;28;20765;-81
2022/03/01 20:31:23;;;;;;;30.60;20.20;;;;;6.30;102108.00;;;;10343310;28;20306;-80
2022/03/01 20:36:26;;;;;;;30.47;19.10;;;;;6.20;102110.00;;;;10335743;28;20215;-80
2022/03/01 20:41:28;;;;;;;30.30;19.43;;;;;6.10;102113.00;;;;10318681;28;20234;-80
2022/03/01 20:46:30;;;;;;;31.00;20.03;;;;;6.10;102109.00;;;;10325079;28;20212;-80
2022/03/01 20:51:32;;;;;;;34.27;19.73;;;;;6.10;102109.00;;;;10358610;28;20303;-80
2022/03/01 20:56:35;;;;;;;35.27;19.73;;;;;6.20;102104.00;;;;10346279;28;20234;-80
2022/03/01 21:01:37;;;;;;;35.20;19.70;;;;;6.20;102101.00;;;;10350591;28;20191;-80
2022/03/01 21:06:40;;;;;;;30.00;19.63;;;;;6.30;102097.00;;;;10326310;28;20674;-80
2022/03/01 21:11:42;;;;;;;30.07;19.17;;;;;6.30;102090.00;;;;10350405;28;20302;-80
2022/03/01 21:16:44;;;;;;;32.67;20.63;;;;;6.30;102101.00;;;;10350164;28;20559;-81
2022/03/01 21:21:46;;;;;;;32.23;20.17;;;;;6.40;102097.00;;;;10350659;28;20211;-81
2022/03/01 21:26:48;;;;;;;35.30;20.47;;;;;6.40;102096.00;;;;10349074;28;20681;-81
2022/03/01 21:31:50;;;;;;;31.97;21.00;;;;;6.50;102102.00;;;;10349314;28;20572;-81
2022/03/01 21:36:52;;;;;;;33.27;20.73;;;;;6.60;102103.00;;;;10377290;28;20194;-81
2022/03/01 21:41:54;;;;;;;29.97;20.00;;;;;6.60;102097.00;;;;10389284;28;20191;-81
2022/03/01 21:46:56;;;;;;;28.43;19.43;;;;;6.60;102100.00;;;;10370020;28;20206;-81
2022/03/01 21:51:58;;;;;;;30.40;19.03;;;;;6.50;102098.00;;;;10347987;28;20578;-81
2022/03/01 21:57:00;;;;;;;33.00;20.83;;;;;6.40;102096.00;;;;10364700;28;20250;-81
2022/03/01 22:02:02;;;;;;;32.87;19.70;;;;;6.30;102102.00;;;;10363726;28;20187;-81
2022/03/01 22:07:05;;;;;;;30.57;18.83;;;;;6.30;102109.00;;;;10377949;28;20658;-81
2022/03/01 22:12:08;;;;;;;35.47;21.37;;;;;6.20;102101.00;;;;10369765;28;20211;-81
2022/03/01 22:17:10;;;;;;;34.87;20.93;;;;;6.20;102109.00;;;;10347758;28;20196;-81
2022/03/01 22:22:13;;;;;;;31.03;20.17;;;;;6.20;102107.00;;;;10347351;28;20223;-81
2022/03/01 22:27:15;;;;;;;34.93;21.00;;;;;6.10;102108.00;;;;10347107;28;20210;-81
2022/03/01 22:32:18;;;;;;;38.60;22.80;;;;;6.10;102103.00;;;;10347134;28;20237;-81
2022/03/01 22:37:20;;;;;;;33.50;20.10;;;;;6.00;102102.00;;;;10362750;28;20203;-81
2022/03/01 22:42:22;;;;;;;33.63;20.83;;;;;6.00;102108.00;;;;10346152;28;20214;-81
2022/03/01 22:47:25;;;;;;;37.13;22.63;;;;;5.90;102104.00;;;;10362266;28;20199;-81
2022/03/01 22:52:27;;;;;;;33.53;21.40;;;;;5.80;102099.00;;;;10345781;28;20234;-81
2022/03/01 22:57:31;;;;;;;32.57;22.00;;;;;5.80;102091.00;;;;10330498;28;20226;-81
2022/03/01 23:02:33;;;;;;;34.03;20.83;;;;;5.70;102082.00;;;;10345378;28;20291;-81
2022/03/01 23:07:35;;;;;;;34.20;22.43;;;;;5.60;102095.00;;;;10380175;28;20199;-81
2022/03/01 23:12:38;;;;;;;38.13;22.70;;;;;5.60;102091.00;;;;10384782;28;20234;-81
2022/03/01 23:17:40;;;;;;;38.70;23.77;;;;;5.50;102107.00;;;;10378345;28;20195;-81
2022/03/01 23:22:42;;;;;;;33.37;22.70;;;;;5.50;102091.00;;;;10345047;28;20216;-82
2022/03/01 23:27:45;;;;;;;38.30;23.30;;;;;5.40;102079.00;;;;10343894;28;20196;-81
2022/03/01 23:32:47;;;;;;;38.50;23.43;;;;;5.30;102079.00;;;;10360389;28;20219;-81
2022/03/01 23:37:49;;;;;;;34.47;24.57;;;;;5.30;102079.00;;;;10330067;28;20224;-81
2022/03/01 23:42:53;;;;;;;39.83;24.07;;;;;5.30;102076.00;;;;10319914;28;20220;-81
2022/03/01 23:47:55;;;;;;;36.50;23.03;;;;;5.30;102072.00;;;;10315686;28;20195;-81
2022/03/01 23:52:57;;;;;;;38.27;23.43;;;;;5.30;102064.00;;;;10344288;28;20246;-81
2022/03/01 23:57:59;;;;;;;37.80;23.63;;;;;5.30;102059.00;;;;10344869;28;20212;-81
